Time;durP1;ratioP1;P1;durP2;ratioP2;P2;SDS_P1;SDS_P2;PMS_P1;PMS_P2;Temp;Humidity;BMP_temperature;BMP_pressure;BME280_temperature;BME280_humidity;BME280_pressure;Samples;Min_cycle;Max_cycle;Signal;HPM_P1;HPM_P2
2023/01/14 00:01:39;;;;;;;12.40;3.17;;;;;;;;;;5023082;28;20478;-82
2023/01/14 00:04:05;;;;;;;11.75;2.10;;;;;;;;;;5019973;28;20026;-81
2023/01/14 00:06:32;;;;;;;7.75;1.60;;;;;;;;;;5028171;28;20035;-81
2023/01/14 00:09:00;;;;;;;25.75;2.53;;;;;;;;;;5011909;28;20041;-82
2023/01/14 00:14:11;;;;;;;11.75;2.72;;;;;;;;;;5008196;28;20045;-82
2023/01/14 00:16:36;;;;;;;8.05;2.15;;;;;;;;;;5021210;28;20037;-82
2023/01/14 00:19:03;;;;;;;20.38;2.17;;;;;;;;;;5026630;28;20482;-82
2023/01/14 00:21:28;;;;;;;7.30;1.75;;;;;;;;;;5027889;28;20582;-83
2023/01/14 00:23:55;;;;;;;7.72;1.67;;;;;;;;;;5026667;28;20120;-82
2023/01/14 00:26:21;;;;;;;10.50;1.98;;;;;;;;;;5010244;28;20041;-82
2023/01/14 00:28:48;;;;;;;9.45;2.25;;;;;;;;;;5019652;28;20175;-82
2023/01/14 00:31:16;;;;;;;11.73;2.40;;;;;;;;;;5027556;28;20032;-82
2023/01/14 00:33:42;;;;;;;4.53;1.50;;;;;;;;;;5026167;28;20479;-82
2023/01/14 00:36:10;;;;;;;10.60;2.35;;;;;;;;;;5027383;28;20041;-82
2023/01/14 00:38:36;;;;;;;6.97;1.73;;;;;;;;;;5027754;28;20057;-82
2023/01/14 00:41:13;;;;;;;13.73;1.90;;;;;;;;;;5025734;28;20034;-81
2023/01/14 00:43:44;;;;;;;15.15;2.35;;;;;;;;;;5028041;28;20045;-82
2023/01/14 00:46:23;;;;;;;9.40;2.30;;;;;;;;;;5025580;28;20017;-82
2023/01/14 00:48:48;;;;;;;15.25;2.28;;;;;;;;;;5026389;28;20029;-82
2023/01/14 00:51:15;;;;;;;4.90;1.83;;;;;;;;;;5025680;28;20049;-82
2023/01/14 00:53:41;;;;;;;11.38;2.53;;;;;;;;;;5028173;28;20041;-82
2023/01/14 00:56:07;;;;;;;10.18;1.50;;;;;;;;;;5027530;28;20628;-82
2023/01/14 00:58:32;;;;;;;14.30;2.80;;;;;;;;;;5034463;28;20052;-82
2023/01/14 01:00:58;;;;;;;12.02;1.67;;;;;;;;;;5030199;28;20033;-81
2023/01/14 01:03:24;;;;;;;3.25;1.25;;;;;;;;;;5032678;28;20068;-81
2023/01/14 01:05:50;;;;;;;7.78;1.42;;;;;;;;;;5045055;28;20183;-82
2023/01/14 01:08:18;;;;;;;9.27;1.55;;;;;;;;;;5041482;28;20453;-83
2023/01/14 01:10:48;;;;;;;14.23;2.25;;;;;;;;;;5030889;28;20041;-81
2023/01/14 01:13:15;;;;;;;14.20;1.90;;;;;;;;;;5025732;28;20103;-81
2023/01/14 01:15:41;;;;;;;12.57;1.95;;;;;;;;;;5029563;28;20130;-83
2023/01/14 01:18:08;;;;;;;11.43;2.15;;;;;;;;;;5040241;28;20056;-81
2023/01/14 01:20:34;;;;;;;8.77;1.85;;;;;;;;;;5044271;28;20036;-82
2023/01/14 01:23:00;;;;;;;12.43;2.00;;;;;;;;;;5046868;28;20569;-82
2023/01/14 01:25:26;;;;;;;9.50;2.20;;;;;;;;;;5032855;28;20218;-82
2023/01/14 01:27:53;;;;;;;8.82;2.08;;;;;;;;;;5036637;28;20498;-81
2023/01/14 01:30:19;;;;;;;4.35;1.48;;;;;;;;;;5046537;28;20037;-82
2023/01/14 01:32:44;;;;;;;9.32;1.63;;;;;;;;;;5044507;28;20040;-82
2023/01/14 01:35:10;;;;;;;6.43;1.38;;;;;;;;;;5027327;28;20056;-82
2023/01/14 01:37:35;;;;;;;10.30;1.48;;;;;;;;;;5029010;28;20139;-82
2023/01/14 01:40:01;;;;;;;15.20;2.25;;;;;;;;;;5025732;28;20429;-81
2023/01/14 01:42:28;;;;;;;5.65;1.50;;;;;;;;;;5031868;28;20084;-82
2023/01/14 01:44:53;;;;;;;7.00;1.30;;;;;;;;;;5045738;28;20037;-82
2023/01/14 01:47:21;;;;;;;9.20;1.75;;;;;;;;;;5035332;28;20125;-82
2023/01/14 01:49:46;;;;;;;9.18;2.03;;;;;;;;;;5024787;28;20041;-82
2023/01/14 01:52:16;;;;;;;5.82;1.25;;;;;;;;;;5022751;28;20041;-82
2023/01/14 01:54:48;;;;;;;9.30;1.88;;;;;;;;;;5025004;28;20033;-82
2023/01/14 01:57:15;;;;;;;10.38;2.08;;;;;;;;;;5017012;28;20073;-83
2023/01/14 01:59:45;;;;;;;6.63;1.52;;;;;;;;;;5024674;28;20033;-81
2023/01/14 02:02:11;;;;;;;7.25;1.30;;;;;;;;;;5024737;28;20041;-82
2023/01/14 02:04:36;;;;;;;18.42;2.15;;;;;;;;;;5024136;28;20030;-82
2023/01/14 02:07:01;;;;;;;10.48;1.90;;;;;;;;;;5024730;28;20040;-82
2023/01/14 02:09:27;;;;;;;8.30;2.03;;;;;;;;;;5005053;28;20029;-82
2023/01/14 02:11:56;;;;;;;7.85;1.50;;;;;;;;;;5004674;28;20523;-82
2023/01/14 02:14:27;;;;;;;7.68;2.13;;;;;;;;;;5006037;28;20111;-82
2023/01/14 02:17:11;;;;;;;11.20;1.80;;;;;;;;;;5009898;28;20577;-81
2023/01/14 02:20:05;;;;;;;;;;;;;;;;;;5005360;28;20060;-82
2023/01/14 02:22:49;;;;;;;11.10;1.85;;;;;;;;;;5003551;28;19924;-81
2023/01/14 02:25:17;;;;;;;7.35;1.30;;;;;;;;;;5006033;28;20110;-81
2023/01/14 02:27:54;;;;;;;11.32;2.13;;;;;;;;;;5009271;28;20033;-82
2023/01/14 02:30:26;;;;;;;9.13;2.03;;;;;;;;;;5026408;28;20068;-81
2023/01/14 02:33:13;;;;;;;11.18;1.77;;;;;;;;;;5029293;28;20087;-82
2023/01/14 02:36:16;;;;;;;10.48;1.75;;;;;;;;;;5017474;28;20038;-82
2023/01/14 02:39:13;;;;;;;8.00;1.50;;;;;;;;;;4997359;28;20045;-81
2023/01/14 02:44:37;;;;;;;13.65;2.42;;;;;;;;;;5015208;28;20047;-81
2023/01/14 02:47:10;;;;;;;8.80;1.80;;;;;;;;;;5012025;28;20062;-81
2023/01/14 02:49:41;;;;;;;11.60;1.50;;;;;;;;;;5010051;28;20514;-82
2023/01/14 02:52:07;;;;;;;6.93;1.33;;;;;;;;;;5007545;28;20403;-81
2023/01/14 02:54:32;;;;;;;11.13;2.55;;;;;;;;;;5008459;28;20029;-81
2023/01/14 02:57:04;;;;;;;9.50;1.75;;;;;;;;;;5009321;28;20551;-81
2023/01/14 02:59:44;;;;;;;17.40;2.40;;;;;;;;;;5024512;28;20606;-82
2023/01/14 03:02:27;;;;;;;9.40;1.85;;;;;;;;;;5009214;28;20041;-82
2023/01/14 03:05:17;;;;;;;15.55;2.20;;;;;;;;;;5027133;28;20128;-81
2023/01/14 03:08:03;;;;;;;8.73;2.25;;;;;;;;;;5027754;28;20115;-81
2023/01/14 03:10:43;;;;;;;12.13;1.80;;;;;;;;;;5008223;28;20128;-82
2023/01/14 03:13:17;;;;;;;6.63;1.63;;;;;;;;;;5015578;28;20025;-82
2023/01/14 03:16:24;;;;;;;11.02;2.22;;;;;;;;;;5021873;28;20495;-81
2023/01/14 03:19:23;;;;;;;12.40;2.40;;;;;;;;;;4970081;28;20074;-81
2023/01/14 03:21:55;;;;;;;8.85;2.25;;;;;;;;;;4985800;28;20038;-81
2023/01/14 03:24:33;;;;;;;7.13;1.85;;;;;;;;;;5013507;28;20061;-82
2023/01/14 03:27:06;;;;;;;6.60;1.13;;;;;;;;;;5043685;28;20048;-81
2023/01/14 03:29:36;;;;;;;10.43;2.10;;;;;;;;;;5029456;28;20042;-81
2023/01/14 03:32:23;;;;;;;8.02;1.83;;;;;;;;;;5032767;28;20038;-81
2023/01/14 03:34:58;;;;;;;13.90;2.38;;;;;;;;;;5007700;28;20493;-82
2023/01/14 03:37:25;;;;;;;11.10;1.60;;;;;;;;;;5012115;28;20037;-81
2023/01/14 03:39:52;;;;;;;5.47;1.10;;;;;;;;;;5035822;28;20021;-81
2023/01/14 03:42:21;;;;;;;3.50;1.02;;;;;;;;;;5038766;28;20052;-81
2023/01/14 03:45:11;;;;;;;11.77;1.33;;;;;;;;;;5040185;28;20128;-82
2023/01/14 03:47:37;;;;;;;5.28;1.48;;;;;;;;;;5030641;28;20034;-80
2023/01/14 03:50:07;;;;;;;4.45;1.35;;;;;;;;;;5034203;28;20052;-82
2023/01/14 03:52:51;;;;;;;5.63;1.00;;;;;;;;;;5032246;28;20084;-82
2023/01/14 03:55:36;;;;;;;12.68;1.90;;;;;;;;;;5029310;28;20056;-81
2023/01/14 03:58:14;;;;;;;7.32;1.40;;;;;;;;;;5030605;28;20025;-81
2023/01/14 04:00:52;;;;;;;2.03;1.30;;;;;;;;;;5045469;28;20025;-79
2023/01/14 04:03:19;;;;;;;10.60;2.25;;;;;;;;;;5034501;28;20040;-81
2023/01/14 04:05:45;;;;;;;2.50;1.45;;;;;;;;;;5044176;28;20544;-82
2023/01/14 04:08:11;;;;;;;8.82;1.58;;;;;;;;;;5056412;28;20028;-81
2023/01/14 04:10:36;;;;;;;3.20;1.20;;;;;;;;;;5041635;28;20025;-81
2023/01/14 04:15:45;;;;;;;13.15;1.75;;;;;;;;;;5010035;28;20566;-81
2023/01/14 04:18:11;;;;;;;14.15;2.42;;;;;;;;;;5021945;28;20041;-81
2023/01/14 04:20:36;;;;;;;5.03;1.40;;;;;;;;;;5016233;28;20203;-81
2023/01/14 04:23:01;;;;;;;7.75;1.75;;;;;;;;;;5022435;28;20044;-80
2023/01/14 04:25:27;;;;;;;2.30;1.20;;;;;;;;;;5018817;28;20037;-81
2023/01/14 04:27:52;;;;;;;4.38;1.60;;;;;;;;;;5015088;28;20032;-80
2023/01/14 04:30:17;;;;;;;6.78;2.13;;;;;;;;;;5017929;28;20104;-81
2023/01/14 04:32:43;;;;;;;8.60;2.03;;;;;;;;;;5017373;28;20042;-81
2023/01/14 04:35:08;;;;;;;10.85;1.77;;;;;;;;;;5018948;28;20045;-81
2023/01/14 04:37:34;;;;;;;4.25;1.85;;;;;;;;;;5019704;28;20049;-82
2023/01/14 04:39:59;;;;;;;7.45;1.50;;;;;;;;;;5022997;28;20075;-81
2023/01/14 04:42:27;;;;;;;6.35;1.73;;;;;;;;;;5009239;28;20041;-81
2023/01/14 04:44:58;;;;;;;4.05;1.48;;;;;;;;;;5035294;28;20033;-81
2023/01/14 04:47:25;;;;;;;3.63;1.27;;;;;;;;;;5025884;28;20045;-81
2023/01/14 04:49:50;;;;;;;12.18;2.00;;;;;;;;;;5018713;28;20033;-80
2023/01/14 04:52:16;;;;;;;5.80;1.60;;;;;;;;;;5012172;28;20161;-81
2023/01/14 04:54:42;;;;;;;7.30;1.67;;;;;;;;;;5016010;28;20029;-80
2023/01/14 04:57:07;;;;;;;8.50;1.67;;;;;;;;;;5019579;28;20050;-81
2023/01/14 04:59:34;;;;;;;2.95;1.23;;;;;;;;;;5026288;28;20477;-81
2023/01/14 05:01:59;;;;;;;9.52;1.55;;;;;;;;;;5025764;28;20529;-81
2023/01/14 05:04:24;;;;;;;9.57;2.33;;;;;;;;;;5022297;28;20045;-81
2023/01/14 05:06:50;;;;;;;1.63;0.75;;;;;;;;;;5025915;28;20025;-81
2023/01/14 05:09:15;;;;;;;5.35;2.15;;;;;;;;;;5024019;28;20479;-81
2023/01/14 05:11:40;;;;;;;4.15;1.38;;;;;;;;;;5025098;28;20045;-81
2023/01/14 05:14:06;;;;;;;2.25;1.55;;;;;;;;;;5019307;28;20037;-81
2023/01/14 05:16:31;;;;;;;7.03;1.55;;;;;;;;;;5021069;28;20658;-81
2023/01/14 05:18:56;;;;;;;7.07;1.65;;;;;;;;;;5014055;28;20034;-81
2023/01/14 05:21:22;;;;;;;4.43;1.83;;;;;;;;;;5022372;28;20033;-81
2023/01/14 05:23:48;;;;;;;5.18;1.30;;;;;;;;;;5011568;28;20074;-81
2023/01/14 05:26:14;;;;;;;5.85;1.45;;;;;;;;;;5024534;28;20044;-81
2023/01/14 05:28:39;;;;;;;5.65;1.90;;;;;;;;;;5014049;28;20611;-81
2023/01/14 05:31:05;;;;;;;4.82;1.65;;;;;;;;;;5013345;28;20159;-81
2023/01/14 05:33:30;;;;;;;3.42;1.30;;;;;;;;;;5019842;28;20486;-81
2023/01/14 05:35:57;;;;;;;6.20;1.88;;;;;;;;;;5010102;28;20092;-81
2023/01/14 05:38:23;;;;;;;5.18;1.17;;;;;;;;;;5017500;28;20065;-81
2023/01/14 05:40:48;;;;;;;6.28;1.98;;;;;;;;;;5023958;28;20099;-81
2023/01/14 05:46:03;;;;;;;5.43;1.50;;;;;;;;;;5012956;28;20115;-80
2023/01/14 05:48:29;;;;;;;4.32;1.92;;;;;;;;;;5032173;28;20045;-81
2023/01/14 05:50:57;;;;;;;5.10;1.88;;;;;;;;;;5029671;28;20040;-80
2023/01/14 05:53:23;;;;;;;6.10;1.60;;;;;;;;;;5039517;28;20064;-81
2023/01/14 05:55:50;;;;;;;2.35;1.30;;;;;;;;;;5038852;28;20044;-81
2023/01/14 05:58:16;;;;;;;3.55;1.48;;;;;;;;;;5039535;28;20486;-81
2023/01/14 06:06:22;;;;;;;3.72;1.70;;;;;;;;;;5025292;28;20525;-81
2023/01/14 06:08:48;;;;;;;6.13;2.42;;;;;;;;;;5013248;28;20037;-80
2023/01/14 06:11:14;;;;;;;5.75;2.67;;;;;;;;;;5014304;28;20034;-81
2023/01/14 06:13:39;;;;;;;5.57;1.83;;;;;;;;;;5004869;28;20034;-81
2023/01/14 06:16:07;;;;;;;7.82;2.03;;;;;;;;;;5018205;28;20107;-82
2023/01/14 06:18:41;;;;;;;3.42;1.67;;;;;;;;;;5018388;28;20060;-81
2023/01/14 06:21:14;;;;;;;5.18;1.70;;;;;;;;;;5021745;28;20035;-81
2023/01/14 06:23:40;;;;;;;3.95;1.58;;;;;;;;;;5012340;28;20110;-81
2023/01/14 06:26:10;;;;;;;5.22;1.75;;;;;;;;;;5019243;28;20297;-81
2023/01/14 06:28:35;;;;;;;2.95;2.05;;;;;;;;;;5013501;28;20030;-81
2023/01/14 06:31:01;;;;;;;1.33;1.17;;;;;;;;;;5018530;28;20068;-81
2023/01/14 06:33:26;;;;;;;2.65;1.42;;;;;;;;;;5014044;28;20040;-81
2023/01/14 06:35:52;;;;;;;4.68;1.10;;;;;;;;;;5013434;28;20033;-81
2023/01/14 06:38:17;;;;;;;4.43;1.90;;;;;;;;;;5017501;28;20041;-81
2023/01/14 06:40:43;;;;;;;2.65;1.48;;;;;;;;;;5020759;28;20103;-81
2023/01/14 06:43:08;;;;;;;1.95;1.02;;;;;;;;;;5025028;28;20100;-81
2023/01/14 06:45:34;;;;;;;4.35;1.70;;;;;;;;;;5010330;28;20376;-81
2023/01/14 06:48:00;;;;;;;3.47;1.45;;;;;;;;;;5018938;28;20026;-81
2023/01/14 06:50:26;;;;;;;4.53;1.42;;;;;;;;;;5009997;28;20041;-81
2023/01/14 06:52:52;;;;;;;4.72;1.70;;;;;;;;;;5007398;28;20034;-81
2023/01/14 06:55:21;;;;;;;5.20;1.30;;;;;;;;;;5027444;28;20026;-82
2023/01/14 06:57:46;;;;;;;5.35;1.70;;;;;;;;;;5015875;28;20160;-82
2023/01/14 07:00:13;;;;;;;6.65;1.58;;;;;;;;;;5021667;28;20108;-81
2023/01/14 07:02:38;;;;;;;4.82;1.30;;;;;;;;;;5024692;28;20026;-81
2023/01/14 07:05:05;;;;;;;3.45;1.05;;;;;;;;;;5020524;28;20042;-81
2023/01/14 07:07:30;;;;;;;4.45;1.67;;;;;;;;;;5010000;28;20077;-82
2023/01/14 07:09:55;;;;;;;2.30;1.30;;;;;;;;;;5010832;28;20060;-81
2023/01/14 07:12:21;;;;;;;3.85;1.85;;;;;;;;;;5014236;28;20108;-80
2023/01/14 07:14:47;;;;;;;2.97;1.15;;;;;;;;;;5014847;28;20090;-82
2023/01/14 07:17:12;;;;;;;4.72;1.67;;;;;;;;;;5024608;28;20450;-82
2023/01/14 07:19:37;;;;;;;5.75;1.42;;;;;;;;;;5023439;28;20038;-81
2023/01/14 07:22:03;;;;;;;2.35;1.15;;;;;;;;;;5017162;28;20150;-81
2023/01/14 07:24:28;;;;;;;3.35;1.55;;;;;;;;;;5018241;28;20090;-81
2023/01/14 07:26:53;;;;;;;8.50;1.63;;;;;;;;;;5023395;28;20180;-81
2023/01/14 07:29:19;;;;;;;7.63;2.00;;;;;;;;;;5025924;28;20064;-81
2023/01/14 07:31:44;;;;;;;1.45;0.70;;;;;;;;;;5026934;28;20033;-81
2023/01/14 07:34:09;;;;;;;4.88;1.60;;;;;;;;;;5018504;28;20026;-81
2023/01/14 07:36:35;;;;;;;6.63;1.63;;;;;;;;;;5021586;28;20379;-81
2023/01/14 07:39:00;;;;;;;7.32;1.55;;;;;;;;;;5016674;28;20073;-81
2023/01/14 07:41:25;;;;;;;1.70;1.25;;;;;;;;;;5016237;28;20037;-81
2023/01/14 07:43:51;;;;;;;4.00;1.52;;;;;;;;;;5015844;28;20417;-82
2023/01/14 07:46:16;;;;;;;9.13;1.92;;;;;;;;;;5011730;28;20057;-80
2023/01/14 07:48:44;;;;;;;4.40;1.60;;;;;;;;;;5016428;28;20044;-81
2023/01/14 07:51:10;;;;;;;5.85;1.30;;;;;;;;;;5017894;28;20038;-82
2023/01/14 07:53:36;;;;;;;6.53;1.23;;;;;;;;;;5017946;28;20033;-81
2023/01/14 07:56:06;;;;;;;2.83;1.48;;;;;;;;;;5022148;28;20048;-82
2023/01/14 07:58:31;;;;;;;8.75;1.67;;;;;;;;;;5014286;28;20112;-82
2023/01/14 08:00:57;;;;;;;8.57;1.63;;;;;;;;;;5016543;28;20179;-82
2023/01/14 08:03:24;;;;;;;5.78;1.63;;;;;;;;;;5012934;28;20052;-82
2023/01/14 08:05:51;;;;;;;5.88;0.93;;;;;;;;;;5010179;28;20026;-82
2023/01/14 08:08:17;;;;;;;1.40;0.88;;;;;;;;;;5018902;28;20029;-81
2023/01/14 08:10:42;;;;;;;3.05;0.98;;;;;;;;;;5019925;28;20459;-82
2023/01/14 08:13:11;;;;;;;3.13;1.27;;;;;;;;;;5021414;28;20021;-81
2023/01/14 08:15:37;;;;;;;4.72;1.17;;;;;;;;;;5014997;28;21326;-81
2023/01/14 08:18:02;;;;;;;4.05;1.30;;;;;;;;;;5014213;28;20132;-82
2023/01/14 08:20:28;;;;;;;3.78;1.35;;;;;;;;;;5020369;28;20099;-81
2023/01/14 08:23:00;;;;;;;2.58;1.00;;;;;;;;;;5019903;28;20049;-80
2023/01/14 08:25:26;;;;;;;6.32;1.50;;;;;;;;;;5016921;28;20036;-81
2023/01/14 08:27:52;;;;;;;6.95;1.27;;;;;;;;;;5018698;28;20056;-82
2023/01/14 08:30:17;;;;;;;4.32;1.95;;;;;;;;;;5007352;28;20057;-81
2023/01/14 08:32:43;;;;;;;6.63;1.50;;;;;;;;;;5021042;28;20030;-81
2023/01/14 08:35:09;;;;;;;6.05;1.10;;;;;;;;;;5020453;28;20596;-82
2023/01/14 08:37:34;;;;;;;4.95;1.77;;;;;;;;;;5011757;28;20048;-81
2023/01/14 08:39:59;;;;;;;5.57;0.98;;;;;;;;;;5017967;28;20041;-82
2023/01/14 08:42:25;;;;;;;6.72;1.13;;;;;;;;;;5034649;28;20042;-82
2023/01/14 08:44:50;;;;;;;3.65;0.90;;;;;;;;;;5038903;28;20102;-82
2023/01/14 08:47:15;;;;;;;5.75;1.27;;;;;;;;;;5036266;28;20102;-82
2023/01/14 08:49:41;;;;;;;2.83;1.05;;;;;;;;;;5031860;28;20041;-81
2023/01/14 08:52:07;;;;;;;4.18;1.13;;;;;;;;;;5021508;28;20380;-81
2023/01/14 08:54:32;;;;;;;1.60;1.00;;;;;;;;;;5019105;28;20021;-82
2023/01/14 08:56:57;;;;;;;1.15;0.90;;;;;;;;;;5020238;28;20391;-81
2023/01/14 08:59:23;;;;;;;4.13;1.40;;;;;;;;;;5024744;28;20598;-81
2023/01/14 09:01:49;;;;;;;3.40;0.68;;;;;;;;;;5025574;28;20117;-82
2023/01/14 09:04:14;;;;;;;6.05;1.20;;;;;;;;;;5025545;28;20056;-82
2023/01/14 09:17:53;;;;;;;6.68;1.38;;;;;;;;;;4963158;28;20054;-83
2023/01/14 09:20:18;;;;;;;2.92;0.90;;;;;;;;;;5012395;28;20395;-82
2023/01/14 09:22:46;;;;;;;0.95;0.77;;;;;;;;;;5013872;28;20073;-81
2023/01/14 09:25:11;;;;;;;3.08;0.90;;;;;;;;;;5017894;28;20033;-82
2023/01/14 09:27:37;;;;;;;0.63;0.50;;;;;;;;;;5017764;28;20187;-82
2023/01/14 09:30:03;;;;;;;5.43;1.48;;;;;;;;;;5019813;28;20050;-81
2023/01/14 09:32:37;;;;;;;5.15;1.15;;;;;;;;;;5024864;28;20491;-81
2023/01/14 09:35:03;;;;;;;0.68;0.60;;;;;;;;;;5025690;28;20799;-82
2023/01/14 09:37:28;;;;;;;2.35;0.85;;;;;;;;;;5020324;28;20048;-81
2023/01/14 09:39:53;;;;;;;3.53;0.95;;;;;;;;;;5018059;28;20029;-81
2023/01/14 09:42:40;;;;;;;1.83;0.73;;;;;;;;;;5020590;28;20852;-82
2023/01/14 09:45:22;;;;;;;2.45;0.90;;;;;;;;;;5032120;28;20474;-80
2023/01/14 09:47:48;;;;;;;1.17;0.52;;;;;;;;;;5035226;28;20041;-80
2023/01/14 09:50:16;;;;;;;2.10;0.75;;;;;;;;;;5036377;28;20033;-81
2023/01/14 09:53:22;;;;;;;3.70;1.40;;;;;;;;;;5031878;28;20294;-81
2023/01/14 09:55:56;;;;;;;1.10;0.60;;;;;;;;;;5029674;28;20048;-81
2023/01/14 09:58:28;;;;;;;;;;;;;;;;;;5034378;28;20160;-81
2023/01/14 10:01:08;;;;;;;287.17;11.60;;;;;;;;;;5034494;28;19917;-79
2023/01/14 10:03:58;;;;;;;7.43;1.05;;;;;;;;;;5011725;28;20041;-80
2023/01/14 10:06:24;;;;;;;2.47;0.70;;;;;;;;;;5021683;28;20099;-80
2023/01/14 10:08:56;;;;;;;12.60;1.17;;;;;;;;;;5011344;28;20041;-81
2023/01/14 10:11:22;;;;;;;6.00;0.88;;;;;;;;;;5007751;28;20077;-80
2023/01/14 10:13:59;;;;;;;0.47;0.47;;;;;;;;;;5014113;28;20045;-80
2023/01/14 10:16:28;;;;;;;0.40;0.40;;;;;;;;;;5008752;28;20037;-82
2023/01/14 10:19:03;;;;;;;0.80;0.55;;;;;;;;;;5008568;28;20029;-82
2023/01/14 10:21:51;;;;;;;0.40;0.40;;;;;;;;;;5033620;28;20091;-82
2023/01/14 10:24:19;;;;;;;0.68;0.50;;;;;;;;;;5039795;28;20537;-82
2023/01/14 10:26:47;;;;;;;0.98;0.60;;;;;;;;;;5036640;28;20468;-83
2023/01/14 10:29:16;;;;;;;1.67;0.50;;;;;;;;;;5040380;28;20039;-82
2023/01/14 10:31:50;;;;;;;2.00;0.70;;;;;;;;;;5041775;28;20540;-81
2023/01/14 10:34:24;;;;;;;0.98;0.50;;;;;;;;;;5038393;28;20519;-81
2023/01/14 10:36:50;;;;;;;2.47;0.88;;;;;;;;;;5040102;28;20033;-82
2023/01/14 10:39:15;;;;;;;1.88;0.70;;;;;;;;;;5019579;28;20051;-82
2023/01/14 10:41:49;;;;;;;0.70;0.50;;;;;;;;;;5018595;28;20041;-82
2023/01/14 10:44:21;;;;;;;1.02;0.70;;;;;;;;;;5018483;28;20395;-82
2023/01/14 10:46:47;;;;;;;1.05;0.60;;;;;;;;;;5017708;28;20041;-82
2023/01/14 10:49:20;;;;;;;0.80;0.65;;;;;;;;;;5014404;28;20029;-80
2023/01/14 10:51:50;;;;;;;2.75;1.63;;;;;;;;;;5024817;28;20017;-83
2023/01/14 10:54:19;;;;;;;3.58;1.52;;;;;;;;;;5024291;28;20088;-82
2023/01/14 10:56:49;;;;;;;9.27;3.15;;;;;;;;;;5019949;28;20087;-81
2023/01/14 10:59:40;;;;;;;4.10;1.20;;;;;;;;;;5024948;28;20041;-82
2023/01/14 11:02:19;;;;;;;6.30;2.58;;;;;;;;;;5018671;28;20517;-81
2023/01/14 11:04:45;;;;;;;5.30;2.28;;;;;;;;;;5021673;28;20043;-82
2023/01/14 11:07:19;;;;;;;7.05;1.85;;;;;;;;;;5023555;28;20025;-81
2023/01/14 11:09:44;;;;;;;5.60;2.47;;;;;;;;;;5020475;28;20017;-81
2023/01/14 11:12:25;;;;;;;3.47;1.50;;;;;;;;;;5021456;28;20120;-81
2023/01/14 11:14:51;;;;;;;2.50;1.33;;;;;;;;;;5025161;28;20124;-82
2023/01/14 11:17:29;;;;;;;3.40;1.02;;;;;;;;;;5025984;28;20041;-82
2023/01/14 11:20:24;;;;;;;4.32;1.55;;;;;;;;;;5024232;28;20109;-82
2023/01/14 11:22:59;;;;;;;1.35;0.85;;;;;;;;;;5000981;28;20468;-82
2023/01/14 11:25:25;;;;;;;3.33;1.45;;;;;;;;;;5016238;28;20077;-81
2023/01/14 11:27:51;;;;;;;1.08;0.90;;;;;;;;;;5022017;28;20701;-80
2023/01/14 11:30:19;;;;;;;0.82;0.68;;;;;;;;;;5014648;28;20037;-81
2023/01/14 11:32:51;;;;;;;2.03;0.95;;;;;;;;;;5018265;28;20560;-82
2023/01/14 11:35:24;;;;;;;1.27;0.82;;;;;;;;;;5013708;28;20624;-83
2023/01/14 11:37:53;;;;;;;2.72;1.10;;;;;;;;;;5024855;28;20082;-82
2023/01/14 11:41:28;;;;;;;4.10;1.27;;;;;;;;;;5022176;28;20032;-81
2023/01/14 11:43:13;;;;;;;6.85;1.25;;;;;;;;;;5023097;28;20095;-81
2023/01/14 11:45:38;;;;;;;3.08;1.08;;;;;;;;;;5022168;28;20108;-82
2023/01/14 11:48:23;;;;;;;4.20;0.88;;;;;;;;;;5017686;28;20128;-82
2023/01/14 11:51:03;;;;;;;3.65;1.10;;;;;;;;;;5017804;28;20981;-83
2023/01/14 11:54:03;;;;;;;3.22;1.45;;;;;;;;;;5022920;28;20075;-82
2023/01/14 11:56:35;;;;;;;5.05;1.85;;;;;;;;;;4987491;28;20049;-82
2023/01/14 11:59:14;;;;;;;1.67;0.93;;;;;;;;;;5020825;28;20076;-83
2023/01/14 12:01:47;;;;;;;6.38;1.67;;;;;;;;;;5020987;28;20268;-82
2023/01/14 12:04:18;;;;;;;1.30;0.90;;;;;;;;;;5018131;28;20025;-82
2023/01/14 12:07:20;;;;;;;1.40;0.90;;;;;;;;;;5044480;28;20029;-82
2023/01/14 12:10:20;;;;;;;2.65;1.58;;;;;;;;;;5006743;28;20507;-81
2023/01/14 12:18:39;;;;;;;6.93;1.85;;;;;;;;;;5015008;28;20048;-82
2023/01/14 12:21:05;;;;;;;2.58;1.33;;;;;;;;;;5002564;28;20037;-82
2023/01/14 12:23:40;;;;;;;2.63;1.50;;;;;;;;;;5014661;28;20041;-82
2023/01/14 12:26:16;;;;;;;3.40;1.35;;;;;;;;;;4990577;28;20208;-83
2023/01/14 12:28:47;;;;;;;9.10;1.83;;;;;;;;;;5018521;28;20040;-84
2023/01/14 12:31:24;;;;;;;3.28;1.45;;;;;;;;;;5000321;28;20033;-84
2023/01/14 12:33:57;;;;;;;2.40;1.17;;;;;;;;;;4999764;28;20439;-84
2023/01/14 12:36:37;;;;;;;5.28;1.70;;;;;;;;;;5019505;28;20553;-86
2023/01/14 12:45:44;;;;;;;4.33;1.63;;;;;;;;;;5009161;28;20642;-84
2023/01/14 12:48:11;;;;;;;1.55;1.10;;;;;;;;;;5020009;28;20179;-85
2023/01/14 12:50:47;;;;;;;1.27;0.90;;;;;;;;;;5028415;28;20080;-84
2023/01/14 12:53:26;;;;;;;5.15;2.08;;;;;;;;;;5025265;28;20100;-85
2023/01/14 12:55:54;;;;;;;3.10;1.58;;;;;;;;;;5000566;28;20597;-86
2023/01/14 12:58:22;;;;;;;3.22;1.33;;;;;;;;;;5002765;28;20029;-85
2023/01/14 13:00:51;;;;;;;2.65;1.05;;;;;;;;;;5001816;28;20029;-85
2023/01/14 13:03:21;;;;;;;4.55;1.63;;;;;;;;;;5005118;28;20673;-85
2023/01/14 13:05:47;;;;;;;5.60;1.80;;;;;;;;;;5003334;28;20038;-85
2023/01/14 13:08:34;;;;;;;4.40;1.58;;;;;;;;;;5001370;28;20670;-85
2023/01/14 13:11:03;;;;;;;2.55;1.20;;;;;;;;;;5004096;28;20038;-82
2023/01/14 13:13:31;;;;;;;1.90;1.33;;;;;;;;;;4991361;28;20068;-84
2023/01/14 13:15:58;;;;;;;2.13;1.30;;;;;;;;;;5007129;28;20028;-85
2023/01/14 13:18:36;;;;;;;3.65;1.77;;;;;;;;;;5014732;28;20050;-84
2023/01/14 13:21:03;;;;;;;2.20;1.38;;;;;;;;;;5040552;28;20128;-85
2023/01/14 13:23:44;;;;;;;3.33;1.15;;;;;;;;;;5037283;28;20164;-83
2023/01/14 13:26:41;;;;;;;1.55;1.10;;;;;;;;;;5033695;28;20071;-83
2023/01/14 13:29:16;;;;;;;4.45;1.17;;;;;;;;;;5030485;28;20038;-84
2023/01/14 13:31:42;;;;;;;2.05;1.40;;;;;;;;;;5022578;28;20581;-80
2023/01/14 13:34:32;;;;;;;3.42;1.30;;;;;;;;;;5035666;28;20052;-82
2023/01/14 13:37:02;;;;;;;3.42;1.20;;;;;;;;;;5029121;28;20522;-81
2023/01/14 13:39:30;;;;;;;2.88;1.33;;;;;;;;;;5035723;28;20037;-81
2023/01/14 13:41:57;;;;;;;2.20;1.10;;;;;;;;;;5035899;28;20124;-82
2023/01/14 13:44:28;;;;;;;4.97;1.65;;;;;;;;;;5029920;28;20072;-82
2023/01/14 13:46:57;;;;;;;3.78;1.55;;;;;;;;;;5025940;28;20087;-81
2023/01/14 13:49:25;;;;;;;6.10;1.60;;;;;;;;;;5036641;28;20034;-81
2023/01/14 13:51:55;;;;;;;1.63;1.48;;;;;;;;;;5037733;28;20056;-83
2023/01/14 13:54:25;;;;;;;2.90;1.38;;;;;;;;;;5033102;28;20033;-81
2023/01/14 13:57:23;;;;;;;2.42;1.40;;;;;;;;;;5031152;28;20044;-81
2023/01/14 13:59:55;;;;;;;1.63;1.30;;;;;;;;;;5030158;28;20040;-81
2023/01/14 14:02:48;;;;;;;2.95;1.50;;;;;;;;;;5029957;28;20049;-83
2023/01/14 14:05:20;;;;;;;3.85;1.40;;;;;;;;;;5026090;28;20493;-83
2023/01/14 14:07:45;;;;;;;4.05;1.35;;;;;;;;;;5015901;28;20033;-84
2023/01/14 14:10:19;;;;;;;3.42;1.35;;;;;;;;;;5019065;28;20664;-83
2023/01/14 14:15:55;;;;;;;3.83;1.40;;;;;;;;;;5017037;28;20048;-82
2023/01/14 14:18:35;;;;;;;3.15;1.40;;;;;;;;;;4992238;28;20085;-83
2023/01/14 14:21:06;;;;;;;2.85;1.30;;;;;;;;;;5008459;28;20030;-84
2023/01/14 14:23:35;;;;;;;2.72;1.10;;;;;;;;;;4997086;28;20033;-83
2023/01/14 14:26:11;;;;;;;2.38;1.13;;;;;;;;;;5008577;28;20034;-83
2023/01/14 14:28:38;;;;;;;3.33;0.93;;;;;;;;;;5007457;28;20041;-83
2023/01/14 14:31:08;;;;;;;2.17;1.20;;;;;;;;;;4990580;28;20083;-84
2023/01/14 14:33:42;;;;;;;1.48;0.98;;;;;;;;;;5000379;28;20029;-82
2023/01/14 14:36:18;;;;;;;1.90;1.23;;;;;;;;;;4995965;28;20049;-83
2023/01/14 14:38:47;;;;;;;2.45;1.25;;;;;;;;;;4985298;28;20046;-82
2023/01/14 14:41:27;;;;;;;2.55;1.20;;;;;;;;;;5007061;28;20042;-82
2023/01/14 14:44:14;;;;;;;1.77;1.20;;;;;;;;;;5002524;28;20034;-83
2023/01/14 14:46:40;;;;;;;2.25;1.05;;;;;;;;;;4991329;28;20034;-83
2023/01/14 14:49:16;;;;;;;1.83;1.20;;;;;;;;;;4988676;28;20782;-83
2023/01/14 14:51:47;;;;;;;1.05;0.95;;;;;;;;;;5003379;28;20029;-82
2023/01/14 14:54:42;;;;;;;1.75;0.80;;;;;;;;;;5005441;28;20037;-82
2023/01/14 14:57:14;;;;;;;1.55;1.15;;;;;;;;;;5004533;28;20161;-84
2023/01/14 14:59:40;;;;;;;1.38;1.10;;;;;;;;;;5005659;28;20034;-83
2023/01/14 15:02:23;;;;;;;2.17;1.10;;;;;;;;;;5009332;28;20053;-84
2023/01/14 15:04:53;;;;;;;3.38;1.35;;;;;;;;;;5004871;28;20109;-83
2023/01/14 15:07:19;;;;;;;1.45;0.90;;;;;;;;;;4984193;28;20030;-83
2023/01/14 15:09:46;;;;;;;3.35;1.48;;;;;;;;;;5002838;28;20019;-84
2023/01/14 15:12:18;;;;;;;4.35;1.17;;;;;;;;;;4989821;28;20060;-83
2023/01/14 15:14:54;;;;;;;1.77;1.23;;;;;;;;;;4991048;28;20443;-83
2023/01/14 15:17:20;;;;;;;1.52;1.10;;;;;;;;;;5005056;28;20468;-84
2023/01/14 15:19:47;;;;;;;1.83;1.20;;;;;;;;;;5025720;28;20033;-84
2023/01/14 15:22:17;;;;;;;1.45;1.10;;;;;;;;;;5022685;28;20053;-83
2023/01/14 15:24:44;;;;;;;2.70;0.98;;;;;;;;;;5028081;28;20025;-83
2023/01/14 15:27:16;;;;;;;2.40;1.05;;;;;;;;;;5023861;28;20048;-84
2023/01/14 15:29:54;;;;;;;1.73;1.08;;;;;;;;;;5023079;28;20435;-83
2023/01/14 15:32:32;;;;;;;1.70;0.93;;;;;;;;;;5026692;28;20640;-83
2023/01/14 15:35:21;;;;;;;2.30;1.38;;;;;;;;;;5018435;28;20030;-83
2023/01/14 15:37:48;;;;;;;1.52;1.02;;;;;;;;;;5018874;28;20133;-83
2023/01/14 15:40:16;;;;;;;1.92;1.05;;;;;;;;;;5016472;28;20121;-84
2023/01/14 15:42:43;;;;;;;1.25;0.90;;;;;;;;;;5014632;28;20494;-83
2023/01/14 15:45:20;;;;;;;1.38;0.90;;;;;;;;;;5021343;28;20042;-82